Time;durP1;ratioP1;P1;durP2;ratioP2;P2;SDS_P1;SDS_P2;PMS_P1;PMS_P2;Temp;Humidity;BMP_temperature;BMP_pressure;BME280_temperature;BME280_humidity;BME280_pressure;Samples;Min_cycle;Max_cycle;Signal;HPM_P1;HPM_P2
2022/01/25 00:09:05;;;;;;;65.65;40.40;;;4.40;99.90;;;;;;5049830;28;20041;-63
2022/01/25 00:25:45;;;;;;;66.40;42.72;;;4.40;99.90;;;;;;5065860;28;20052;-63
2022/01/25 00:28:21;;;;;;;72.55;44.95;;;4.40;99.90;;;;;;5054350;28;20041;-63
2022/01/25 00:33:34;;;;;;;66.53;42.40;;;4.30;99.90;;;;;;5049551;28;20041;-63
2022/01/25 00:36:01;;;;;;;68.88;42.90;;;4.30;99.90;;;;;;5049416;28;20087;-63
2022/01/25 00:38:27;;;;;;;69.28;42.70;;;4.30;99.90;;;;;;5049466;28;20102;-63
2022/01/25 00:40:53;;;;;;;67.30;43.08;;;4.30;99.90;;;;;;5048206;28;20442;-63
2022/01/25 00:43:23;;;;;;;68.57;43.00;;;4.30;99.90;;;;;;5049894;28;20128;-63
2022/01/25 00:45:50;;;;;;;67.05;41.10;;;4.30;99.90;;;;;;5047920;28;20124;-63
2022/01/25 00:48:30;;;;;;;67.10;43.25;;;4.30;99.90;;;;;;5049079;28;20095;-63
2022/01/25 00:51:17;;;;;;;67.43;42.45;;;4.30;99.90;;;;;;5048366;28;20040;-63
2022/01/25 00:56:22;;;;;;;71.43;43.45;;;4.30;99.90;;;;;;5048685;28;20111;-63
2022/01/25 00:58:49;;;;;;;69.38;44.00;;;4.30;99.90;;;;;;5045821;28;20049;-63
2022/01/25 01:01:15;;;;;;;72.85;44.22;;;4.30;99.90;;;;;;5048890;28;20036;-63
2022/01/25 01:03:40;;;;;;;66.68;42.03;;;4.30;99.90;;;;;;5048513;28;20037;-63
2022/01/25 01:06:06;;;;;;;65.80;43.53;;;4.30;99.90;;;;;;5048375;28;20045;-63
2022/01/25 01:08:33;;;;;;;73.80;46.42;;;4.20;99.90;;;;;;5048574;28;20041;-62
2022/01/25 01:11:01;;;;;;;69.97;45.13;;;4.20;99.90;;;;;;5048946;28;20094;-63
2022/01/25 01:30:11;;;;;;;66.70;42.60;;;4.20;99.90;;;;;;5048133;28;20112;-63
2022/01/25 01:48:02;;;;;;;68.00;41.17;;;4.10;99.90;;;;;;5047723;28;20127;-63
2022/01/25 01:50:31;;;;;;;68.70;42.17;;;4.00;99.90;;;;;;5046983;28;20052;-63
2022/01/25 01:52:57;;;;;;;68.15;42.90;;;4.10;99.90;;;;;;5047621;28;20037;-63
2022/01/25 01:55:24;;;;;;;64.10;40.78;;;4.00;99.90;;;;;;5046860;28;20040;-63
2022/01/25 01:57:50;;;;;;;70.60;43.35;;;4.00;99.90;;;;;;5048065;28;20034;-63
2022/01/25 02:00:20;;;;;;;69.47;42.25;;;4.00;99.90;;;;;;5047533;28;20037;-63
2022/01/25 02:02:46;;;;;;;69.95;43.22;;;4.00;99.90;;;;;;5046594;28;20055;-63
2022/01/25 02:05:11;;;;;;;67.63;42.73;;;4.00;99.90;;;;;;5046972;28;20583;-63
2022/01/25 02:07:37;;;;;;;69.77;42.60;;;3.90;99.90;;;;;;5047312;28;20071;-63
2022/01/25 02:10:05;;;;;;;72.77;43.80;;;3.90;99.90;;;;;;5048454;28;20048;-63
2022/01/25 02:12:30;;;;;;;77.60;44.55;;;3.90;99.90;;;;;;5047487;28;20037;-63
2022/01/25 02:14:56;;;;;;;72.60;42.27;;;4.00;99.90;;;;;;5047283;28;20079;-63
2022/01/25 02:22:58;;;;;;;73.30;44.22;;;3.90;99.90;;;;;;5046347;28;20344;-63
2022/01/25 02:25:24;;;;;;;73.35;43.28;;;3.90;99.90;;;;;;5047395;28;20041;-63
2022/01/25 02:27:50;;;;;;;75.47;44.22;;;4.00;99.90;;;;;;5046293;28;20478;-63
2022/01/25 02:30:17;;;;;;;72.13;41.95;;;4.00;99.90;;;;;;5049258;28;20033;-63
2022/01/25 02:32:43;;;;;;;70.85;42.83;;;4.00;99.90;;;;;;5051518;28;20487;-63
2022/01/25 02:35:09;;;;;;;71.23;42.93;;;4.00;99.90;;;;;;5050429;28;20052;-63
2022/01/25 02:37:35;;;;;;;;;;;4.00;99.90;;;;;;5051941;28;20119;-63
2022/01/25 02:40:02;;;;;;;71.35;41.47;;;4.00;99.90;;;;;;5051446;28;19921;-63
2022/01/25 02:42:28;;;;;;;73.70;41.78;;;4.00;99.90;;;;;;5052283;28;20444;-63
2022/01/25 02:44:53;;;;;;;74.43;43.73;;;4.00;99.90;;;;;;5066525;28;20049;-63
2022/01/25 02:50:05;;;;;;;72.15;41.60;;;4.00;99.90;;;;;;5051099;28;20303;-63
2022/01/25 02:52:31;;;;;;;77.07;44.45;;;4.00;99.90;;;;;;5051126;28;20041;-63
2022/01/25 02:54:57;;;;;;;74.88;43.60;;;4.00;99.90;;;;;;5051077;28;20125;-63
2022/01/25 02:57:23;;;;;;;72.53;41.50;;;4.00;99.90;;;;;;5051583;28;20108;-63
2022/01/25 02:59:49;;;;;;;72.88;42.92;;;4.00;99.90;;;;;;5049414;28;20072;-63
2022/01/25 03:02:15;;;;;;;73.50;43.77;;;4.00;99.90;;;;;;5051429;28;20036;-63
2022/01/25 03:04:42;;;;;;;72.72;42.28;;;4.00;99.90;;;;;;5051357;28;20040;-63
2022/01/25 03:07:08;;;;;;;67.28;38.92;;;4.00;99.90;;;;;;5051112;28;20449;-63
2022/01/25 03:09:34;;;;;;;;;;;3.90;99.90;;;;;;5051497;28;20033;-63
2022/01/25 03:12:03;;;;;;;70.45;41.30;;;3.90;99.90;;;;;;5066244;28;19923;-63
2022/01/25 03:14:32;;;;;;;72.82;42.70;;;3.90;99.90;;;;;;5051640;28;20041;-63
2022/01/25 03:22:04;;;;;;;67.25;40.95;;;3.90;99.90;;;;;;5051093;28;20044;-63
2022/01/25 03:24:30;;;;;;;69.82;42.10;;;3.90;99.90;;;;;;5047685;28;20405;-63
2022/01/25 03:26:55;;;;;;;73.13;41.60;;;3.90;99.90;;;;;;5048264;28;20124;-63
2022/01/25 03:29:21;;;;;;;74.20;43.00;;;3.90;99.90;;;;;;5049506;28;20041;-63
2022/01/25 03:31:47;;;;;;;71.30;41.07;;;3.90;99.90;;;;;;5049130;28;20283;-63
2022/01/25 03:34:13;;;;;;;73.03;40.73;;;3.90;99.90;;;;;;5048883;28;20037;-63
2022/01/25 03:36:38;;;;;;;68.85;40.03;;;3.90;99.90;;;;;;5049321;28;20036;-63
2022/01/25 03:39:06;;;;;;;71.50;42.20;;;3.90;99.90;;;;;;5050268;28;20041;-63
2022/01/25 03:41:32;;;;;;;69.55;40.47;;;3.90;99.90;;;;;;5053807;28;20029;-63
2022/01/25 03:43:59;;;;;;;69.20;39.10;;;3.90;99.90;;;;;;5050532;28;20036;-63
2022/01/25 03:46:41;;;;;;;;;;;3.90;99.90;;;;;;5055016;28;20066;-63
2022/01/25 03:51:51;;;;;;;67.65;38.00;;;3.90;99.90;;;;;;5049244;28;20041;-63
2022/01/25 03:54:18;;;;;;;71.32;40.13;;;3.90;99.90;;;;;;5049148;28;20037;-63
2022/01/25 03:56:43;;;;;;;67.63;40.42;;;3.90;99.90;;;;;;5046882;28;20163;-63
2022/01/25 03:59:09;;;;;;;67.57;40.85;;;3.90;99.90;;;;;;5044152;28;20128;-63
2022/01/25 04:01:36;;;;;;;70.80;43.50;;;3.90;99.90;;;;;;5048209;28;20025;-63
2022/01/25 04:04:07;;;;;;;69.07;39.28;;;3.90;99.90;;;;;;5048833;28;20128;-63
2022/01/25 04:06:34;;;;;;;68.72;38.58;;;3.90;99.90;;;;;;5048468;28;20163;-63
2022/01/25 04:09:03;;;;;;;67.38;39.90;;;3.90;99.90;;;;;;5047724;28;20509;-63
2022/01/25 04:11:29;;;;;;;73.50;41.22;;;3.90;99.90;;;;;;5048295;28;20036;-63
2022/01/25 04:13:56;;;;;;;72.50;40.23;;;3.90;99.90;;;;;;5048986;28;20033;-62
2022/01/25 04:16:33;;;;;;;71.35;39.95;;;3.90;99.90;;;;;;5047309;28;20530;-62
2022/01/25 04:21:44;;;;;;;69.30;40.17;;;3.90;99.90;;;;;;5048961;28;20490;-63
2022/01/25 04:26:56;;;;;;;69.82;39.90;;;3.90;99.90;;;;;;5049424;28;20044;-63
2022/01/25 04:29:23;;;;;;;72.32;40.63;;;3.90;99.90;;;;;;5049425;28;20132;-62
2022/01/25 04:31:48;;;;;;;70.65;39.72;;;3.90;99.90;;;;;;5050149;28;20059;-63
2022/01/25 04:53:17;;;;;;;71.95;40.80;;;3.90;99.90;;;;;;5046470;28;20045;-63
2022/01/25 04:55:53;;;;;;;74.85;41.58;;;3.90;99.90;;;;;;5048590;28;20037;-63
2022/01/25 04:58:45;;;;;;;71.70;40.83;;;3.90;99.90;;;;;;5048505;28;20064;-62
2022/01/25 05:01:07;;;;;;;70.97;40.13;;;3.80;99.90;;;;;;5048840;28;20091;-63
2022/01/25 05:03:52;;;;;;;73.13;40.70;;;3.90;99.90;;;;;;5048794;28;20044;-63
2022/01/25 05:06:18;;;;;;;69.40;40.05;;;3.90;99.90;;;;;;5044551;28;20045;-63
2022/01/25 05:08:49;;;;;;;72.10;37.97;;;3.90;99.90;;;;;;5048982;28;20128;-63
2022/01/25 05:16:30;;;;;;;71.32;40.25;;;3.90;99.90;;;;;;5048375;28;20114;-63
2022/01/25 05:24:17;;;;;;;68.63;39.95;;;3.90;99.90;;;;;;5043566;28;20283;-63
2022/01/25 05:26:42;;;;;;;78.50;41.33;;;3.90;99.90;;;;;;5046707;28;20041;-63
2022/01/25 05:29:08;;;;;;;70.70;39.78;;;3.90;99.90;;;;;;5048714;28;20093;-63
2022/01/25 05:31:36;;;;;;;71.47;41.45;;;3.90;99.90;;;;;;5047919;28;20037;-63
2022/01/25 05:34:02;;;;;;;70.70;40.58;;;3.90;99.90;;;;;;5048522;28;20445;-63
2022/01/25 05:36:27;;;;;;;65.80;37.55;;;3.90;99.90;;;;;;5048475;28;20033;-63
2022/01/25 05:38:56;;;;;;;71.97;40.73;;;3.90;99.90;;;;;;5049116;28;20119;-63
2022/01/25 05:41:26;;;;;;;73.97;40.67;;;3.90;99.90;;;;;;5048181;28;20199;-63
2022/01/25 05:46:42;;;;;;;70.28;40.33;;;3.90;99.90;;;;;;5048248;28;20280;-63
2022/01/25 05:49:08;;;;;;;73.45;40.63;;;3.90;99.90;;;;;;5048249;28;20102;-63
2022/01/25 05:51:33;;;;;;;69.17;37.47;;;3.90;99.90;;;;;;5048072;28;20037;-63
2022/01/25 05:53:59;;;;;;;73.70;39.80;;;3.90;99.90;;;;;;5048372;28;20111;-63
2022/01/25 05:56:24;;;;;;;70.50;41.27;;;3.90;99.90;;;;;;5048641;28;20395;-63
2022/01/25 05:58:50;;;;;;;73.63;39.53;;;3.90;99.90;;;;;;5046524;28;20063;-63
2022/01/25 06:01:18;;;;;;;76.20;43.83;;;3.90;99.90;;;;;;5047935;28;20113;-63
2022/01/25 06:03:45;;;;;;;72.13;41.28;;;3.90;99.90;;;;;;5047895;28;20029;-62
2022/01/25 06:06:11;;;;;;;69.07;39.00;;;3.90;99.90;;;;;;5047749;28;20051;-63
2022/01/25 06:08:37;;;;;;;72.53;38.40;;;3.90;99.90;;;;;;5048012;28;20037;-63
2022/01/25 06:11:02;;;;;;;70.63;40.03;;;3.90;99.90;;;;;;5048027;28;20154;-62
2022/01/25 06:13:28;;;;;;;66.47;39.03;;;3.90;99.90;;;;;;5047429;28;20118;-63
2022/01/25 06:15:53;;;;;;;72.70;41.53;;;3.90;99.90;;;;;;5047275;28;20036;-63
2022/01/25 06:18:19;;;;;;;71.93;41.07;;;3.90;99.90;;;;;;5047686;28;20036;-62
2022/01/25 06:20:45;;;;;;;68.53;38.63;;;3.90;99.90;;;;;;5047842;28;20292;-63
2022/01/25 06:23:10;;;;;;;76.70;41.93;;;3.90;99.90;;;;;;5047176;28;20553;-63
2022/01/25 06:25:36;;;;;;;74.07;41.20;;;3.90;99.90;;;;;;5047543;28;20133;-63
2022/01/25 06:28:02;;;;;;;73.40;39.13;;;3.90;99.90;;;;;;5047792;28;20043;-63
2022/01/25 06:30:27;;;;;;;73.30;40.45;;;3.90;99.90;;;;;;5047843;28;20055;-63
2022/01/25 06:32:53;;;;;;;65.37;37.83;;;3.90;99.90;;;;;;5047453;28;20029;-63
2022/01/25 06:35:18;;;;;;;74.20;42.73;;;3.90;99.90;;;;;;5046957;28;20044;-63
2022/01/25 06:37:45;;;;;;;80.13;42.27;;;3.90;99.90;;;;;;5049895;28;20171;-63
2022/01/25 06:40:12;;;;;;;74.70;40.72;;;3.90;99.90;;;;;;5028659;28;20052;-63
2022/01/25 06:42:37;;;;;;;;;;;3.90;99.90;;;;;;5034984;28;20079;-63
2022/01/25 06:45:10;;;;;;;78.20;40.85;;;3.90;99.90;;;;;;5048219;28;19959;-63
2022/01/25 06:47:36;;;;;;;74.05;40.65;;;3.90;99.90;;;;;;5046708;28;20286;-63
2022/01/25 06:50:03;;;;;;;72.63;40.65;;;3.90;99.90;;;;;;5046390;28;20502;-63
2022/01/25 06:52:29;;;;;;;76.03;41.00;;;3.90;99.90;;;;;;5035688;28;20121;-63
2022/01/25 06:54:54;;;;;;;73.23;41.60;;;3.90;99.90;;;;;;5028345;28;20116;-63
2022/01/25 06:57:20;;;;;;;71.30;39.30;;;3.90;99.90;;;;;;5048118;28;20126;-63
2022/01/25 06:59:45;;;;;;;76.80;41.37;;;3.90;99.90;;;;;;5054915;28;20052;-63
2022/01/25 07:02:12;;;;;;;82.00;43.97;;;4.00;99.90;;;;;;5049048;28;20036;-63
2022/01/25 07:04:38;;;;;;;76.68;42.53;;;3.90;99.90;;;;;;5049479;28;20037;-63
2022/01/25 07:07:04;;;;;;;76.83;41.23;;;4.00;99.90;;;;;;5053850;28;20410;-63
2022/01/25 07:09:30;;;;;;;76.53;42.20;;;4.00;99.90;;;;;;5046828;28;20291;-63
2022/01/25 07:11:55;;;;;;;74.30;41.33;;;4.00;99.90;;;;;;5034428;28;20033;-62
2022/01/25 07:14:21;;;;;;;79.20;39.40;;;3.90;99.90;;;;;;5051728;28;20044;-63
2022/01/25 07:16:47;;;;;;;75.33;44.53;;;3.90;99.90;;;;;;5057359;28;20025;-62
2022/01/25 07:19:13;;;;;;;78.57;42.90;;;3.90;99.90;;;;;;5058692;28;20040;-62
2022/01/25 07:21:39;;;;;;;;;;;3.90;99.90;;;;;;5057715;28;20047;-62
2022/01/25 07:24:05;;;;;;;71.57;39.65;;;3.90;99.90;;;;;;5064156;28;19924;-62
2022/01/25 07:26:31;;;;;;;70.60;38.38;;;3.90;99.90;;;;;;5064183;28;20352;-62
2022/01/25 07:28:56;;;;;;;70.88;39.78;;;3.90;99.90;;;;;;5065315;28;20098;-62
2022/01/25 07:31:22;;;;;;;75.27;39.70;;;3.90;99.90;;;;;;5062190;28;20040;-62
2022/01/25 07:33:48;;;;;;;70.63;39.93;;;3.90;99.90;;;;;;5064797;28;20039;-62
2022/01/25 07:36:13;;;;;;;75.47;42.77;;;3.90;99.90;;;;;;5056237;28;20036;-62
2022/01/25 07:38:39;;;;;;;74.93;43.17;;;3.90;99.90;;;;;;5062697;28;20037;-62
2022/01/25 07:41:05;;;;;;;73.23;40.90;;;3.90;99.90;;;;;;5062248;28;20310;-62
2022/01/25 07:43:30;;;;;;;78.93;41.30;;;3.90;99.90;;;;;;5063267;28;20531;-63
2022/01/25 07:45:58;;;;;;;72.60;41.30;;;3.90;99.90;;;;;;5064544;28;20428;-62
2022/01/25 07:48:24;;;;;;;78.55;42.00;;;3.90;99.90;;;;;;5062074;28;20086;-62
2022/01/25 07:50:50;;;;;;;81.05;41.88;;;3.90;99.90;;;;;;5061801;28;20293;-62
2022/01/25 07:53:16;;;;;;;72.30;39.60;;;3.90;99.90;;;;;;5056430;28;20441;-62
2022/01/25 07:55:41;;;;;;;75.03;41.93;;;3.80;99.90;;;;;;5054760;28;20033;-63
2022/01/25 07:58:07;;;;;;;73.80;39.63;;;3.80;99.90;;;;;;5057509;28;20649;-62
2022/01/25 08:00:33;;;;;;;75.13;40.67;;;3.80;99.90;;;;;;5065173;28;20028;-62
2022/01/25 08:02:58;;;;;;;74.55;42.33;;;3.80;99.90;;;;;;5064060;28;20409;-62
2022/01/25 08:05:26;;;;;;;74.67;42.47;;;3.80;99.90;;;;;;5058623;28;20040;-62
2022/01/25 08:07:53;;;;;;;79.35;43.15;;;3.80;99.90;;;;;;5055228;28;20510;-62
2022/01/25 08:10:20;;;;;;;72.18;41.00;;;3.80;99.90;;;;;;5058368;28;20402;-62
2022/01/25 08:12:47;;;;;;;74.30;41.95;;;3.80;99.90;;;;;;5065119;28;20047;-62
2022/01/25 08:15:13;;;;;;;77.25;41.22;;;3.80;99.90;;;;;;5059224;28;20044;-62
2022/01/25 08:17:39;;;;;;;80.82;43.13;;;3.80;99.90;;;;;;5062172;28;20479;-62
2022/01/25 08:20:05;;;;;;;79.73;41.87;;;3.90;99.90;;;;;;5060961;28;20131;-62
2022/01/25 08:22:33;;;;;;;81.75;38.83;;;3.90;99.90;;;;;;5053743;28;20424;-62
2022/01/25 08:24:59;;;;;;;76.82;36.63;;;3.90;99.90;;;;;;5053628;28;20052;-64
2022/01/25 08:27:24;;;;;;;76.20;40.08;;;3.90;99.90;;;;;;5054245;28;20418;-63
2022/01/25 08:29:51;;;;;;;73.07;40.17;;;3.90;99.90;;;;;;5059285;28;20044;-65
2022/01/25 08:32:17;;;;;;;81.65;40.00;;;3.90;99.90;;;;;;5061812;28;20089;-63
2022/01/25 08:34:43;;;;;;;68.40;38.35;;;3.90;99.90;;;;;;5061988;28;20028;-63
2022/01/25 08:37:09;;;;;;;75.97;41.30;;;3.90;99.90;;;;;;5060115;28;20036;-63
2022/01/25 08:39:34;;;;;;;69.28;38.72;;;4.00;99.90;;;;;;5057174;28;20043;-64
2022/01/25 08:42:00;;;;;;;75.93;40.70;;;4.00;99.90;;;;;;5065150;28;20503;-62
2022/01/25 08:44:26;;;;;;;73.60;39.83;;;4.00;99.90;;;;;;5058157;28;20052;-62
2022/01/25 08:46:52;;;;;;;74.90;40.17;;;4.00;99.90;;;;;;5058930;28;20106;-62
2022/01/25 08:49:17;;;;;;;77.30;41.77;;;4.00;99.90;;;;;;5061737;28;20041;-62
2022/01/25 08:51:43;;;;;;;80.00;42.07;;;4.10;99.90;;;;;;5062844;28;20392;-62
2022/01/25 08:54:09;;;;;;;79.77;43.30;;;4.00;99.90;;;;;;5062699;28;20051;-62
2022/01/25 08:56:34;;;;;;;76.13;40.78;;;4.00;99.90;;;;;;5058669;28;20107;-62
2022/01/25 08:59:00;;;;;;;73.73;40.97;;;4.00;99.90;;;;;;5055015;28;20428;-63
2022/01/25 09:01:27;;;;;;;77.50;40.73;;;4.00;99.90;;;;;;5054470;28;20123;-61
2022/01/25 09:03:54;;;;;;;77.70;40.67;;;4.00;99.90;;;;;;5059257;28;20036;-61
2022/01/25 09:06:20;;;;;;;77.32;40.17;;;4.00;99.90;;;;;;5058912;28;20048;-60
2022/01/25 09:08:46;;;;;;;80.22;41.03;;;4.00;99.90;;;;;;5061052;28;20040;-61
2022/01/25 09:11:12;;;;;;;76.82;40.65;;;4.00;99.90;;;;;;5057904;28;20036;-60
2022/01/25 09:13:38;;;;;;;112.63;42.37;;;4.10;99.90;;;;;;5051933;28;20500;-61
2022/01/25 09:16:04;;;;;;;84.43;39.42;;;4.10;99.90;;;;;;5056109;28;20304;-62
2022/01/25 09:18:30;;;;;;;79.90;41.10;;;4.10;99.90;;;;;;5039407;28;20417;-61
2022/01/25 09:20:56;;;;;;;77.25;40.65;;;4.20;99.90;;;;;;5060949;28;20382;-61
2022/01/25 09:23:23;;;;;;;76.47;40.95;;;4.20;99.90;;;;;;5061690;28;20110;-61
2022/01/25 09:25:50;;;;;;;77.55;41.42;;;4.20;99.90;;;;;;5053806;28;20565;-64
2022/01/25 09:28:16;;;;;;;;;;;4.20;99.90;;;;;;5062471;28;20036;-65
2022/01/25 09:30:42;;;;;;;69.18;35.75;;;4.20;99.90;;;;;;5061278;28;20053;-62
2022/01/25 09:33:08;;;;;;;79.10;40.60;;;4.20;99.90;;;;;;5062236;28;20037;-62
2022/01/25 09:35:34;;;;;;;74.30;40.60;;;4.20;99.90;;;;;;5063647;28;20063;-63
2022/01/25 09:37:59;;;;;;;78.57;41.42;;;4.20;99.90;;;;;;5057972;28;20456;-62
2022/01/25 09:40:25;;;;;;;75.57;40.47;;;4.20;99.90;;;;;;5061051;28;20500;-62
2022/01/25 09:42:54;;;;;;;74.82;37.85;;;4.20;99.90;;;;;;5062642;28;20040;-62
2022/01/25 09:45:20;;;;;;;73.75;40.28;;;4.10;99.90;;;;;;5062223;28;20052;-61
2022/01/25 09:47:46;;;;;;;72.35;38.58;;;4.10;99.90;;;;;;5062295;28;20126;-62
2022/01/25 09:50:12;;;;;;;73.63;37.50;;;4.10;99.90;;;;;;5062769;28;20455;-62
2022/01/25 09:52:41;;;;;;;74.77;37.80;;;4.10;99.90;;;;;;5063764;28;20040;-62
2022/01/25 09:55:16;;;;;;;78.97;38.78;;;4.20;99.90;;;;;;5063089;28;20044;-62
2022/01/25 09:57:42;;;;;;;76.13;40.17;;;4.20;99.90;;;;;;5063922;28;20453;-62
2022/01/25 10:00:10;;;;;;;69.53;38.78;;;4.20;99.90;;;;;;5063150;28;20120;-62
2022/01/25 10:02:45;;;;;;;71.50;38.05;;;4.20;99.90;;;;;;5055791;28;20068;-62
2022/01/25 10:05:35;;;;;;;78.20;41.95;;;4.20;99.90;;;;;;5063318;28;20075;-62
2022/01/25 10:08:14;;;;;;;74.97;38.33;;;4.20;99.90;;;;;;5062388;28;20036;-62
2022/01/25 10:10:49;;;;;;;83.78;40.78;;;4.20;99.90;;;;;;5063772;28;20047;-62
2022/01/25 10:13:30;;;;;;;79.65;40.35;;;4.20;99.90;;;;;;5062953;28;20137;-62
2022/01/25 10:16:03;;;;;;;77.57;40.28;;;4.20;99.90;;;;;;5062720;28;20043;-62
2022/01/25 10:18:56;;;;;;;80.70;41.25;;;4.20;99.90;;;;;;5064830;28;20040;-62
2022/01/25 10:21:29;;;;;;;77.60;39.20;;;4.30;99.90;;;;;;5056047;28;20344;-62
2022/01/25 10:24:17;;;;;;;76.60;39.67;;;4.30;99.90;;;;;;5061913;28;20324;-62
2022/01/25 10:26:49;;;;;;;73.90;40.47;;;4.30;99.90;;;;;;5062601;28;20071;-62
2022/01/25 10:29:19;;;;;;;75.15;40.38;;;4.30;99.90;;;;;;5061876;28;20048;-62
2022/01/25 10:31:47;;;;;;;76.57;41.38;;;4.30;99.90;;;;;;5061629;28;20036;-62
2022/01/25 10:34:16;;;;;;;80.82;44.47;;;4.30;99.90;;;;;;5061279;28;20055;-62
2022/01/25 10:36:45;;;;;;;81.18;42.75;;;4.20;99.90;;;;;;5063102;28;20035;-61
2022/01/25 10:39:31;;;;;;;80.68;41.35;;;4.20;99.90;;;;;;5063125;28;20036;-62
2022/01/25 10:42:05;;;;;;;72.38;41.17;;;4.20;99.90;;;;;;5063314;28;20035;-62
2022/01/25 10:44:49;;;;;;;72.82;39.67;;;4.20;99.90;;;;;;5062934;28;20090;-62
2022/01/25 10:47:20;;;;;;;74.93;37.55;;;4.20;99.90;;;;;;5062229;28;20461;-62
2022/01/25 10:49:47;;;;;;;76.88;39.67;;;4.20;99.90;;;;;;5063296;28;20085;-62
2022/01/25 10:52:13;;;;;;;77.75;40.70;;;4.20;99.90;;;;;;5064502;28;20044;-62
2022/01/25 10:54:41;;;;;;;76.80;39.13;;;4.20;99.90;;;;;;5066570;28;20037;-61
2022/01/25 10:57:19;;;;;;;73.78;38.35;;;4.20;99.90;;;;;;5066683;28;20037;-62
2022/01/25 10:59:58;;;;;;;75.68;38.25;;;4.20;99.90;;;;;;5066989;28;20036;-62
2022/01/25 11:02:23;;;;;;;71.97;38.30;;;4.30;99.90;;;;;;5066712;28;20040;-62
2022/01/25 11:04:49;;;;;;;74.10;38.42;;;4.30;99.90;;;;;;5067030;28;20769;-62
2022/01/25 11:07:15;;;;;;;83.03;40.63;;;4.30;99.90;;;;;;5065258;28;20453;-62
2022/01/25 11:09:46;;;;;;;85.33;41.87;;;4.30;99.90;;;;;;5048088;28;20020;-62
2022/01/25 11:12:18;;;;;;;76.55;40.33;;;4.30;99.90;;;;;;5055977;28;20076;-62
2022/01/25 11:14:56;;;;;;;77.05;40.55;;;4.30;99.90;;;;;;5060275;28;20033;-62
2022/01/25 11:17:25;;;;;;;75.32;40.58;;;4.30;99.90;;;;;;5060014;28;20114;-62
2022/01/25 11:19:52;;;;;;;73.82;39.80;;;4.30;99.90;;;;;;5055652;28;20045;-62
2022/01/25 11:22:21;;;;;;;86.20;43.03;;;4.30;99.90;;;;;;5051734;28;20037;-62
2022/01/25 11:24:55;;;;;;;71.97;36.75;;;4.30;99.90;;;;;;5052107;28;20521;-62
2022/01/25 11:27:23;;;;;;;80.35;42.05;;;4.30;99.90;;;;;;5057069;28;20029;-62
2022/01/25 11:29:51;;;;;;;77.13;39.97;;;4.30;99.90;;;;;;5056119;28;20567;-62
2022/01/25 11:32:23;;;;;;;76.95;39.03;;;4.30;99.90;;;;;;5054999;28;20029;-63
2022/01/25 11:34:50;;;;;;;77.57;41.15;;;4.30;99.90;;;;;;5053563;28;20044;-62
2022/01/25 11:37:16;;;;;;;78.35;42.38;;;4.40;99.90;;;;;;5058642;28;20102;-62
2022/01/25 11:39:48;;;;;;;79.57;41.13;;;4.40;99.90;;;;;;5059396;28;20031;-63
2022/01/25 11:42:18;;;;;;;79.32;42.45;;;4.40;99.90;;;;;;5053781;28;20036;-63
2022/01/25 11:44:58;;;;;;;79.45;40.75;;;4.40;99.90;;;;;;5058692;28;20060;-63
2022/01/25 11:47:32;;;;;;;83.40;40.88;;;4.40;99.90;;;;;;5062994;28;20083;-62
2022/01/25 11:50:18;;;;;;;76.32;42.22;;;4.40;99.90;;;;;;5063281;28;20588;-62
2022/01/25 11:52:53;;;;;;;80.03;41.40;;;4.40;99.90;;;;;;5065492;28;20127;-62
2022/01/25 11:55:26;;;;;;;80.80;40.75;;;4.40;99.90;;;;;;5057363;28;20047;-62
2022/01/25 11:58:00;;;;;;;78.28;39.90;;;4.40;99.90;;;;;;5066196;28;20028;-62
2022/01/25 12:00:40;;;;;;;73.78;40.08;;;4.40;99.90;;;;;;5065448;28;20032;-62
2022/01/25 12:03:37;;;;;;;74.68;41.00;;;4.40;99.90;;;;;;5064429;28;20217;-62
2022/01/25 12:06:08;;;;;;;77.50;39.83;;;4.40;99.90;;;;;;5065832;28;20071;-62
2022/01/25 12:11:36;;;;;;;70.93;38.65;;;4.40;99.90;;;;;;5064166;28;20106;-62
2022/01/25 12:14:32;;;;;;;72.65;39.42;;;4.40;99.90;;;;;;5065112;28;20056;-62
2022/01/25 12:17:04;;;;;;;80.25;38.08;;;4.40;99.90;;;;;;5051648;28;20032;-61
2022/01/25 12:19:39;;;;;;;84.55;42.05;;;4.40;99.90;;;;;;5051163;28;20127;-62
2022/01/25 12:22:15;;;;;;;80.25;42.53;;;4.40;99.90;;;;;;5053638;28;20096;-62
2022/01/25 12:24:46;;;;;;;75.60;39.70;;;4.40;99.90;;;;;;5058003;28;20320;-62
2022/01/25 12:27:25;;;;;;;76.72;40.58;;;4.40;99.90;;;;;;5057263;28;20114;-62
2022/01/25 12:30:11;;;;;;;76.32;38.38;;;4.40;99.90;;;;;;5056684;28;20614;-62
2022/01/25 12:32:48;;;;;;;76.40;37.90;;;4.40;99.90;;;;;;5058280;28;20033;-62
2022/01/25 12:35:19;;;;;;;70.27;38.20;;;4.50;99.90;;;;;;5059797;28;20533;-62
2022/01/25 12:37:45;;;;;;;72.78;38.78;;;4.50;99.90;;;;;;5063311;28;20286;-62
2022/01/25 12:40:26;;;;;;;75.72;40.15;;;4.50;99.90;;;;;;5061983;28;20102;-62
2022/01/25 12:42:51;;;;;;;76.57;38.75;;;4.50;99.90;;;;;;5062650;28;20128;-61
2022/01/25 12:45:18;;;;;;;80.40;39.13;;;4.40;99.90;;;;;;5063367;28;20476;-61
2022/01/25 12:48:19;;;;;;;73.18;40.33;;;4.40;99.90;;;;;;5061073;28;20068;-61
2022/01/25 12:50:49;;;;;;;70.07;35.97;;;4.40;99.90;;;;;;5061282;28;20135;-61
2022/01/25 12:53:18;;;;;;;74.20;36.33;;;4.40;99.90;;;;;;5062764;28;20044;-61
2022/01/25 12:55:47;;;;;;;71.75;38.63;;;4.50;99.90;;;;;;5064071;28;20121;-62
2022/01/25 12:58:13;;;;;;;71.25;36.03;;;4.40;99.90;;;;;;5064446;28;20399;-61
2022/01/25 13:00:45;;;;;;;75.22;37.88;;;4.40;99.90;;;;;;5064267;28;20047;-64
2022/01/25 13:03:20;;;;;;;77.75;38.42;;;4.50;99.90;;;;;;5059475;28;20057;-62
2022/01/25 13:05:52;;;;;;;80.90;39.13;;;4.50;99.90;;;;;;5060394;28;20151;-61
2022/01/25 13:09:12;;;;;;;66.90;35.83;;;4.50;99.90;;;;;;5063748;28;20114;-62
2022/01/25 13:16:46;;;;;;;74.85;38.30;;;4.50;99.90;;;;;;5060740;28;20135;-61
2022/01/25 13:19:15;;;;;;;74.15;39.80;;;4.50;99.90;;;;;;5061722;28;20099;-61
2022/01/25 13:21:42;;;;;;;77.32;38.92;;;4.40;99.90;;;;;;5061763;28;20087;-61
2022/01/25 13:24:15;;;;;;;76.22;39.30;;;4.50;99.90;;;;;;5060315;28;20576;-62
2022/01/25 13:27:13;;;;;;;75.72;37.42;;;4.50;99.90;;;;;;5063789;28;20090;-61
2022/01/25 13:32:30;;;;;;;71.15;36.10;;;4.50;99.90;;;;;;5056355;28;20080;-61
2022/01/25 13:35:04;;;;;;;68.55;34.13;;;4.50;99.90;;;;;;5061598;28;20114;-61
2022/01/25 13:37:31;;;;;;;75.75;36.50;;;4.50;99.90;;;;;;5063692;28;20103;-61
2022/01/25 13:40:02;;;;;;;;;;;4.50;99.90;;;;;;5066150;28;20054;-62
2022/01/25 13:42:39;;;;;;;64.07;33.40;;;4.50;99.90;;;;;;5069835;28;19923;-62
2022/01/25 13:45:46;;;;;;;63.83;35.47;;;4.50;99.90;;;;;;5064621;28;20040;-61
2022/01/25 13:48:14;;;;;;;66.50;32.78;;;4.50;99.90;;;;;;5063751;28;20049;-62
2022/01/25 13:50:41;;;;;;;70.63;35.58;;;4.50;99.90;;;;;;5058073;28;20055;-62
2022/01/25 13:53:08;;;;;;;67.60;34.00;;;4.50;99.90;;;;;;5063237;28;20044;-61
2022/01/25 13:55:35;;;;;;;69.03;32.83;;;4.50;99.90;;;;;;5063270;28;20032;-61
2022/01/25 13:58:01;;;;;;;67.43;34.65;;;4.50;99.90;;;;;;5063291;28;20064;-61
2022/01/25 14:00:27;;;;;;;71.20;34.35;;;4.50;99.90;;;;;;5059552;28;20086;-61
2022/01/25 14:02:56;;;;;;;65.65;33.25;;;4.50;99.90;;;;;;5063401;28;20573;-61
2022/01/25 14:05:22;;;;;;;68.03;34.67;;;4.50;99.90;;;;;;5057463;28;20405;-61
2022/01/25 14:07:53;;;;;;;63.58;33.33;;;4.50;99.90;;;;;;5054747;28;20124;-59
2022/01/25 14:10:24;;;;;;;71.43;35.95;;;4.50;99.90;;;;;;5047889;28;20036;-61
2022/01/25 14:23:51;;;;;;;70.35;33.85;;;4.50;99.90;;;;;;5053839;28;20044;-61
2022/01/25 14:26:18;;;;;;;65.00;33.73;;;4.50;99.90;;;;;;5049984;28;20037;-62
2022/01/25 14:28:54;;;;;;;69.85;34.80;;;4.50;99.90;;;;;;5054628;28;20048;-62
2022/01/25 14:31:23;;;;;;;69.30;35.33;;;4.50;99.90;;;;;;5050955;28;20107;-64
2022/01/25 14:34:00;;;;;;;64.95;35.00;;;4.50;99.90;;;;;;5053081;28;20037;-64
2022/01/25 14:36:27;;;;;;;68.05;34.65;;;4.50;99.90;;;;;;5061067;28;20437;-64
2022/01/25 14:38:54;;;;;;;67.57;34.50;;;4.50;99.90;;;;;;5057077;28;20065;-64
2022/01/25 14:41:31;;;;;;;65.05;33.40;;;4.50;99.90;;;;;;5065597;28;20037;-64
2022/01/25 14:44:04;;;;;;;72.95;35.63;;;4.50;99.90;;;;;;5052068;28;20041;-64
2022/01/25 14:46:36;;;;;;;67.25;34.88;;;4.50;99.90;;;;;;5044681;28;20216;-65
2022/01/25 14:49:21;;;;;;;73.28;35.38;;;4.50;99.90;;;;;;5060937;28;20040;-64
2022/01/25 14:51:48;;;;;;;71.75;34.88;;;4.40;99.90;;;;;;5054847;28;20040;-64
2022/01/25 14:54:26;;;;;;;70.38;34.08;;;4.40;99.90;;;;;;5059170;28;20090;-64
2022/01/25 14:56:56;;;;;;;69.50;34.60;;;4.40;99.90;;;;;;5061996;28;20079;-64
2022/01/25 14:59:27;;;;;;;72.82;35.00;;;4.40;99.90;;;;;;5057436;28;20044;-63
2022/01/25 15:01:56;;;;;;;68.05;33.53;;;4.40;99.90;;;;;;5055743;28;20052;-63
2022/01/25 15:04:22;;;;;;;64.95;34.50;;;4.40;99.90;;;;;;5054338;28;20363;-64